createdAt,value
2017-11-12T00:00:27.322Z,49.12
2017-11-12T00:01:27.368Z,49.22
2017-11-12T00:02:27.402Z,49.41
2017-11-12T00:03:27.453Z,48.93
2017-11-12T00:04:27.504Z,48.74
2017-11-12T00:05:27.533Z,49.12
2017-11-12T00:06:27.574Z,48.47
2017-11-12T00:07:27.615Z,48.18
2017-11-12T00:08:27.656Z,48.28
2017-11-12T00:09:27.697Z,47.41
2017-11-12T00:10:27.739Z,47.61
2017-11-12T00:11:27.781Z,47.51
2017-11-12T00:12:27.823Z,47.51
2017-11-12T00:13:27.866Z,47.61
2017-11-12T00:14:27.910Z,47.80
2017-11-12T00:15:27.951Z,46.93
2017-11-12T00:16:28.001Z,47.24
2017-11-12T00:17:28.035Z,46.93
2017-11-12T00:18:28.078Z,46.67
2017-11-12T00:19:28.119Z,46.86
2017-11-12T00:20:28.162Z,46.74
2017-11-12T00:21:28.205Z,46.86
2017-11-12T00:22:28.246Z,46.86
2017-11-12T00:23:28.289Z,47.05
2017-11-12T00:24:28.339Z,46.77
2017-11-12T00:25:28.373Z,46.86
2017-11-12T00:26:28.425Z,46.77
2017-11-12T00:27:28.460Z,46.95
2017-11-12T00:28:28.500Z,47.05
2017-11-12T00:29:28.548Z,46.95
2017-11-12T00:30:28.584Z,47.05
2017-11-12T00:31:28.630Z,46.95
2017-11-12T00:32:28.673Z,47.05
2017-11-12T00:33:28.712Z,46.93
2017-11-12T00:34:28.766Z,46.95
2017-11-12T00:35:28.797Z,47.05
2017-11-12T00:36:28.843Z,46.93
2017-11-12T00:37:28.881Z,47.03
2017-11-12T00:38:28.924Z,47.22
2017-11-12T00:39:28.968Z,47.31
2017-11-12T00:40:29.014Z,47.13
2017-11-12T00:41:29.053Z,46.45
2017-11-12T00:42:29.095Z,46.55
2017-11-12T00:43:29.137Z,47.13
2017-11-12T00:44:29.179Z,47.22
2017-11-12T00:45:29.222Z,47.51
2017-11-12T00:46:29.271Z,47.70
2017-11-12T00:47:29.308Z,47.61
2017-11-12T00:48:29.350Z,47.87
2017-11-12T00:49:29.390Z,47.39
2017-11-12T00:50:29.436Z,47.58
2017-11-12T00:51:29.480Z,47.39
2017-11-12T00:52:29.521Z,47.97
2017-11-12T00:53:29.560Z,47.87
2017-11-12T00:54:29.608Z,48.25
2017-11-12T00:55:29.648Z,48.16
2017-11-12T00:56:29.694Z,48.16
2017-11-12T00:57:29.737Z,48.25
2017-11-12T00:58:29.776Z,48.25
2017-11-12T00:59:29.816Z,48.35
2017-11-12T01:00:29.861Z,49.12
2017-11-12T01:01:29.906Z,48.07
2017-11-12T01:02:29.943Z,48.45
2017-11-12T01:03:29.987Z,48.74
2017-11-12T01:04:30.029Z,49.10
2017-11-12T01:05:30.071Z,48.54
2017-11-12T01:06:30.117Z,48.93
2017-11-12T01:07:30.155Z,49.29
2017-11-12T01:08:30.204Z,49.12
2017-11-12T01:09:30.238Z,49.02
2017-11-12T01:10:30.284Z,49.02
2017-11-12T01:11:30.326Z,49.02
2017-11-12T01:12:30.365Z,49.22
2017-11-12T01:13:30.407Z,49.22
2017-11-12T01:14:30.451Z,48.54
2017-11-12T01:15:30.494Z,48.07
2017-11-12T01:16:30.540Z,48.08
2017-11-12T01:17:30.577Z,48.47
2017-11-12T01:18:30.618Z,47.99
2017-11-12T01:19:30.663Z,47.89
2017-11-12T01:20:30.703Z,47.41
2017-11-12T01:21:30.743Z,47.80
2017-11-12T01:22:30.788Z,47.51
2017-11-12T01:23:30.831Z,47.03
2017-11-12T01:24:30.895Z,46.84
2017-11-12T01:25:30.922Z,46.84
2017-11-12T01:26:30.957Z,46.64
2017-11-12T01:27:30.996Z,46.67
2017-11-12T01:28:31.041Z,46.57
2017-11-12T01:29:31.084Z,47.24
2017-11-12T01:30:31.125Z,46.77
2017-11-12T01:31:31.168Z,46.67
2017-11-12T01:32:31.209Z,46.86
2017-11-12T01:33:31.253Z,47.15
2017-11-12T01:34:31.295Z,46.77
2017-11-12T01:35:31.337Z,46.77
2017-11-12T01:36:31.378Z,47.15
2017-11-12T01:37:31.422Z,46.67
2017-11-12T01:38:31.470Z,47.05
2017-11-12T01:39:31.508Z,46.95
2017-11-12T01:40:31.548Z,46.95
2017-11-12T01:41:31.592Z,47.05
2017-11-12T01:42:31.648Z,46.84
2017-11-12T01:43:31.682Z,46.93
2017-11-12T01:44:31.718Z,47.03
2017-11-12T01:45:31.761Z,46.74
2017-11-12T01:46:31.806Z,46.93
2017-11-12T01:47:31.846Z,46.93
2017-11-12T01:48:31.887Z,46.84
2017-11-12T01:49:31.931Z,47.61
2017-11-12T01:50:31.973Z,47.61
2017-11-12T01:51:32.026Z,46.93
2017-11-12T01:52:32.059Z,46.84
2017-11-12T01:53:32.101Z,47.61
2017-11-12T01:54:32.143Z,47.61
2017-11-12T01:55:32.185Z,46.93
2017-11-12T01:56:32.269Z,47.22
2017-11-12T01:57:32.277Z,46.93
2017-11-12T01:58:32.312Z,47.10
2017-11-12T01:59:32.358Z,47.87
2017-11-12T02:00:32.397Z,47.87
2017-11-12T02:01:32.473Z,47.68
2017-11-12T02:02:32.481Z,47.00
2017-11-12T02:03:32.524Z,47.49
2017-11-12T02:04:32.568Z,47.77
2017-11-12T02:05:32.614Z,47.97
2017-11-12T02:06:32.653Z,48.16
2017-11-12T02:07:32.694Z,48.16
2017-11-12T02:08:32.744Z,48.16
2017-11-12T02:09:32.781Z,48.64
2017-11-12T02:10:32.820Z,48.25
2017-11-12T02:11:32.867Z,48.25
2017-11-12T02:12:32.907Z,48.16
2017-11-12T02:13:32.948Z,48.43
2017-11-12T02:14:32.994Z,49.10
2017-11-12T02:15:33.035Z,48.71
2017-11-12T02:16:33.076Z,49.02
2017-11-12T02:17:33.116Z,49.12
2017-11-12T02:18:33.164Z,49.12
2017-11-12T02:19:33.201Z,49.31
2017-11-12T02:20:33.243Z,48.74
2017-11-12T02:21:33.285Z,49.12
2017-11-12T02:22:33.329Z,48.93
2017-11-12T02:23:33.369Z,48.16
2017-11-12T02:24:33.412Z,48.07
2017-11-12T02:25:33.454Z,48.28
2017-11-12T02:26:33.503Z,47.99
2017-11-12T02:27:33.539Z,47.80
2017-11-12T02:28:33.583Z,47.61
2017-11-12T02:29:33.624Z,47.61
2017-11-12T02:30:33.664Z,47.51
2017-11-12T02:31:33.706Z,46.93
2017-11-12T02:32:33.750Z,46.93
2017-11-12T02:33:33.794Z,46.93
2017-11-12T02:34:33.836Z,46.93
2017-11-12T02:35:33.875Z,46.84
2017-11-12T02:36:33.921Z,46.57
2017-11-12T02:37:33.962Z,46.84
2017-11-12T02:38:34.004Z,46.86
2017-11-12T02:39:34.047Z,46.57
2017-11-12T02:40:34.085Z,46.28
2017-11-12T02:41:34.130Z,46.77
2017-11-12T02:42:34.173Z,46.67
2017-11-12T02:43:34.214Z,46.67
2017-11-12T02:44:34.259Z,46.67
2017-11-12T02:45:34.300Z,46.77
2017-11-12T02:46:34.339Z,46.77
2017-11-12T02:47:34.383Z,46.77
2017-11-12T02:48:34.426Z,46.67
2017-11-12T02:49:34.472Z,46.67
2017-11-12T02:50:34.510Z,46.67
2017-11-12T02:51:34.555Z,47.13
2017-11-12T02:52:34.594Z,47.03
2017-11-12T02:53:34.636Z,46.93
2017-11-12T02:54:34.685Z,46.84
2017-11-12T02:55:34.725Z,46.74
2017-11-12T02:56:34.763Z,46.64
2017-11-12T02:57:34.808Z,46.93
2017-11-12T02:58:34.852Z,45.97
2017-11-12T02:59:34.894Z,46.26
2017-11-12T03:00:34.932Z,46.74
2017-11-12T03:01:34.979Z,47.13
2017-11-12T03:02:35.016Z,46.84
2017-11-12T03:03:35.061Z,46.81
2017-11-12T03:04:35.105Z,47.13
2017-11-12T03:05:35.148Z,47.68
2017-11-12T03:06:35.189Z,47.68
2017-11-12T03:07:35.236Z,47.49
2017-11-12T03:08:35.277Z,47.49
2017-11-12T03:09:35.315Z,47.39
2017-11-12T03:10:35.359Z,47.77
2017-11-12T03:11:35.402Z,47.87
2017-11-12T03:12:35.444Z,47.58
2017-11-12T03:13:35.509Z,47.97
2017-11-12T03:14:35.530Z,48.35
2017-11-12T03:15:35.573Z,47.97
2017-11-12T03:16:35.612Z,47.39
2017-11-12T03:17:35.655Z,48.35
2017-11-12T03:18:35.704Z,48.33
2017-11-12T03:19:35.739Z,47.85
2017-11-12T03:20:35.782Z,48.43
2017-11-12T03:21:35.825Z,48.61
2017-11-12T03:22:35.869Z,48.43
2017-11-12T03:23:35.908Z,48.04
2017-11-12T03:24:35.953Z,48.33
2017-11-12T03:25:35.992Z,48.90
2017-11-12T03:26:36.036Z,49.10
2017-11-12T03:27:36.078Z,48.90
2017-11-12T03:28:36.120Z,49.10
2017-11-12T03:29:36.168Z,49.10
2017-11-12T03:30:36.223Z,49.10
2017-11-12T03:31:36.245Z,48.83
2017-11-12T03:32:36.289Z,48.64
2017-11-12T03:33:36.329Z,49.12
2017-11-12T03:34:36.373Z,48.35
2017-11-12T03:35:36.414Z,48.35
2017-11-12T03:36:36.459Z,47.89
2017-11-12T03:37:36.499Z,47.61
2017-11-12T03:38:36.541Z,47.89
2017-11-12T03:39:36.585Z,47.61
2017-11-12T03:40:36.625Z,47.70
2017-11-12T03:41:36.666Z,46.84
2017-11-12T03:42:36.710Z,47.03
2017-11-12T03:43:36.752Z,47.13
2017-11-12T03:44:36.794Z,46.55
2017-11-12T03:45:36.838Z,47.03
2017-11-12T03:46:36.876Z,46.74
2017-11-12T03:47:36.921Z,46.67
2017-11-12T03:48:36.962Z,46.47
2017-11-12T03:49:37.004Z,46.47
2017-11-12T03:50:37.046Z,46.77
2017-11-12T03:51:37.094Z,46.67
2017-11-12T03:52:37.130Z,46.47
2017-11-12T03:53:37.173Z,46.38
2017-11-12T03:54:37.217Z,46.38
2017-11-12T03:55:37.257Z,46.77
2017-11-12T03:56:37.305Z,46.77
2017-11-12T03:57:37.344Z,46.77
2017-11-12T03:58:37.384Z,46.74
2017-11-12T03:59:37.427Z,47.03
2017-11-12T04:00:37.469Z,46.74
2017-11-12T04:01:37.513Z,47.13
2017-11-12T04:02:37.553Z,47.03
2017-11-12T04:03:37.595Z,46.93
2017-11-12T04:04:37.637Z,46.93
2017-11-12T04:05:37.681Z,46.84
2017-11-12T04:06:37.723Z,46.64
2017-11-12T04:07:37.766Z,46.84
2017-11-12T04:08:37.809Z,46.55
2017-11-12T04:09:37.850Z,46.26
2017-11-12T04:10:37.894Z,46.26
2017-11-12T04:11:37.937Z,46.91
2017-11-12T04:12:37.978Z,46.43
2017-11-12T04:13:38.020Z,46.72
2017-11-12T04:14:38.063Z,47.39
2017-11-12T04:15:38.107Z,47.58
2017-11-12T04:16:38.148Z,47.00
2017-11-12T04:17:38.193Z,47.77
2017-11-12T04:18:38.234Z,47.10
2017-11-12T04:19:38.275Z,47.49
2017-11-12T04:20:38.319Z,47.97
2017-11-12T04:21:38.360Z,47.30
2017-11-12T04:22:38.403Z,47.00
2017-11-12T04:23:38.443Z,47.77
2017-11-12T04:24:38.488Z,47.56
2017-11-12T04:25:38.527Z,47.77
2017-11-12T04:26:38.570Z,46.98
2017-11-12T04:27:38.614Z,48.04
2017-11-12T04:28:38.654Z,47.36
2017-11-12T04:29:38.705Z,47.85
2017-11-12T04:30:38.743Z,48.23
2017-11-12T04:31:38.783Z,47.94
2017-11-12T04:32:38.830Z,47.56
2017-11-12T04:33:38.867Z,48.13
2017-11-12T04:34:38.913Z,49.10
2017-11-12T04:35:38.952Z,48.90
2017-11-12T04:36:38.991Z,49.10
2017-11-12T04:37:39.039Z,49.10
2017-11-12T04:38:39.078Z,49.19
2017-11-12T04:39:39.120Z,49.29
2017-11-12T04:40:39.161Z,49.38
2017-11-12T04:41:39.205Z,49.00
2017-11-12T04:42:39.248Z,49.10
2017-11-12T04:43:39.304Z,49.19
2017-11-12T04:44:39.330Z,48.74
2017-11-12T04:45:39.370Z,48.07
2017-11-12T04:46:39.421Z,48.07
2017-11-12T04:47:39.461Z,48.25
2017-11-12T04:48:39.500Z,48.35
2017-11-12T04:49:39.540Z,47.87
2017-11-12T04:50:39.582Z,47.70
2017-11-12T04:51:39.625Z,47.70
2017-11-12T04:52:39.666Z,47.31
2017-11-12T04:53:39.707Z,47.03
2017-11-12T04:54:39.755Z,46.64
2017-11-12T04:55:39.796Z,47.03
2017-11-12T04:56:39.834Z,46.84
2017-11-12T04:57:39.876Z,46.84
2017-11-12T04:58:39.918Z,47.13
2017-11-12T04:59:39.964Z,46.64
2017-11-12T05:00:40.006Z,47.15
2017-11-12T05:01:40.047Z,46.93
2017-11-12T05:02:40.089Z,46.74
2017-11-12T05:03:40.132Z,46.77
2017-11-12T05:04:40.171Z,46.55
2017-11-12T05:05:40.219Z,46.45
2017-11-12T05:06:40.258Z,46.74
2017-11-12T05:07:40.302Z,46.45
2017-11-12T05:08:40.340Z,46.64
2017-11-12T05:09:40.384Z,46.74
2017-11-12T05:10:40.424Z,46.55
2017-11-12T05:11:40.466Z,46.93
2017-11-12T05:12:40.512Z,46.74
2017-11-12T05:13:40.550Z,46.74
2017-11-12T05:14:40.596Z,46.55
2017-11-12T05:15:40.643Z,46.16
2017-11-12T05:16:40.678Z,45.49
2017-11-12T05:17:40.722Z,45.68
2017-11-12T05:18:40.765Z,46.74
2017-11-12T05:19:40.807Z,46.72
2017-11-12T05:20:40.854Z,46.36
2017-11-12T05:21:40.892Z,46.81
2017-11-12T05:22:40.933Z,47.00
2017-11-12T05:23:40.977Z,46.81
2017-11-12T05:24:41.019Z,47.00
2017-11-12T05:25:41.058Z,46.72
2017-11-12T05:26:41.102Z,47.68
2017-11-12T05:27:41.145Z,47.58
2017-11-12T05:28:41.188Z,47.68
2017-11-12T05:29:41.229Z,47.20
2017-11-12T05:30:41.274Z,47.58
2017-11-12T05:31:41.315Z,47.68
2017-11-12T05:32:41.356Z,47.39
2017-11-12T05:33:41.397Z,48.07
2017-11-12T05:34:41.442Z,47.66
2017-11-12T05:35:41.484Z,47.39
2017-11-12T05:36:41.525Z,47.75
2017-11-12T05:37:41.568Z,47.75
2017-11-12T05:38:41.611Z,47.66
2017-11-12T05:39:41.654Z,48.13
2017-11-12T05:40:41.696Z,48.04
2017-11-12T05:41:41.740Z,48.43
2017-11-12T05:42:41.780Z,47.56
2017-11-12T05:43:41.822Z,47.94
2017-11-12T05:44:41.884Z,47.94
2017-11-12T05:45:41.904Z,48.23
2017-11-12T05:46:41.956Z,48.23
2017-11-12T05:47:41.994Z,48.13
2017-11-12T05:48:42.032Z,48.23
2017-11-12T05:49:42.075Z,48.33
2017-11-12T05:50:42.116Z,48.13
2017-11-12T05:51:42.164Z,48.59
2017-11-12T05:52:42.199Z,49.29
2017-11-12T05:53:42.247Z,48.81
2017-11-12T05:54:42.285Z,48.49
2017-11-12T05:55:42.328Z,49.10
2017-11-12T05:56:42.368Z,48.79
2017-11-12T05:57:42.416Z,48.71
2017-11-12T05:58:42.453Z,48.90
2017-11-12T05:59:42.493Z,49.29
2017-11-12T06:00:42.538Z,49.10
2017-11-12T06:01:42.579Z,49.00
2017-11-12T06:02:42.621Z,49.19
2017-11-12T06:03:42.668Z,49.10
2017-11-12T06:04:42.703Z,49.10
2017-11-12T06:05:42.747Z,49.00
2017-11-12T06:06:42.794Z,48.74
2017-11-12T06:07:42.828Z,48.07
2017-11-12T06:08:42.869Z,48.25
2017-11-12T06:09:42.923Z,48.25
2017-11-12T06:10:42.954Z,47.87
2017-11-12T06:11:42.996Z,47.68
2017-11-12T06:12:43.040Z,47.20
2017-11-12T06:13:43.081Z,47.20
2017-11-12T06:14:43.123Z,47.49
2017-11-12T06:15:43.163Z,47.41
2017-11-12T06:16:43.206Z,47.70
2017-11-12T06:17:43.248Z,47.80
2017-11-12T06:18:43.288Z,47.13
2017-11-12T06:19:43.332Z,46.93
2017-11-12T06:20:43.373Z,46.84
2017-11-12T06:21:43.414Z,46.93
2017-11-12T06:22:43.456Z,47.31
2017-11-12T06:23:43.499Z,46.93
2017-11-12T06:24:43.541Z,47.41
2017-11-12T06:25:43.582Z,47.41
2017-11-12T06:26:43.628Z,46.93
2017-11-12T06:27:43.666Z,47.51
2017-11-12T06:28:43.709Z,47.41
2017-11-12T06:29:43.751Z,47.31
2017-11-12T06:30:43.792Z,47.03
2017-11-12T06:31:43.837Z,47.30
2017-11-12T06:32:43.880Z,46.43
2017-11-12T06:33:43.919Z,46.81
2017-11-12T06:34:43.964Z,46.81
2017-11-12T06:35:44.004Z,46.33
2017-11-12T06:36:44.045Z,45.95
2017-11-12T06:37:44.092Z,46.62
2017-11-12T06:38:44.131Z,46.72
2017-11-12T06:39:44.171Z,46.23
2017-11-12T06:40:44.215Z,47.58
2017-11-12T06:41:44.256Z,47.68
2017-11-12T06:42:44.297Z,46.98
2017-11-12T06:43:44.340Z,47.30
2017-11-12T06:44:44.382Z,47.39
2017-11-12T06:45:44.425Z,47.17
2017-11-12T06:46:44.468Z,47.36
2017-11-12T06:47:44.510Z,47.10
2017-11-12T06:48:44.550Z,47.49
2017-11-12T06:49:44.594Z,47.56
2017-11-12T06:50:44.638Z,47.46
2017-11-12T06:51:44.677Z,47.85
2017-11-12T06:52:44.717Z,47.85
2017-11-12T06:53:44.761Z,48.23
2017-11-12T06:54:44.804Z,47.94
2017-11-12T06:55:44.848Z,48.04
2017-11-12T06:56:44.889Z,47.56
2017-11-12T06:57:44.929Z,47.85
2017-11-12T06:58:44.972Z,48.04
2017-11-12T06:59:45.014Z,48.23
2017-11-12T07:00:45.058Z,48.33
2017-11-12T07:01:45.101Z,47.66
2017-11-12T07:02:45.141Z,48.04
2017-11-12T07:03:45.187Z,47.66
2017-11-12T07:04:45.224Z,47.66
2017-11-12T07:05:45.265Z,47.85
2017-11-12T07:06:45.308Z,48.33
2017-11-12T07:07:45.349Z,48.23
2017-11-12T07:08:45.391Z,48.02
2017-11-12T07:09:45.431Z,48.23
2017-11-12T07:10:45.478Z,48.04
2017-11-12T07:11:45.519Z,48.88
2017-11-12T07:12:45.558Z,49.29
2017-11-12T07:13:45.607Z,49.29
2017-11-12T07:14:45.642Z,48.90
2017-11-12T07:15:45.689Z,48.90
2017-11-12T07:16:45.728Z,49.00
2017-11-12T07:17:45.768Z,48.90
2017-11-12T07:18:45.812Z,49.19
2017-11-12T07:19:45.852Z,49.19
2017-11-12T07:20:45.892Z,48.52
2017-11-12T07:21:45.937Z,48.74
2017-11-12T07:22:45.978Z,49.02
2017-11-12T07:23:46.020Z,48.16
2017-11-12T07:24:46.059Z,48.07
2017-11-12T07:25:46.107Z,47.97
2017-11-12T07:26:46.144Z,47.87
2017-11-12T07:27:46.187Z,47.97
2017-11-12T07:28:46.231Z,47.77
2017-11-12T07:29:46.278Z,47.58
2017-11-12T07:30:46.315Z,47.61
2017-11-12T07:31:46.355Z,47.61
2017-11-12T07:32:46.395Z,47.13
2017-11-12T07:33:46.442Z,47.13
2017-11-12T07:34:46.493Z,47.51
2017-11-12T07:35:46.521Z,47.03
2017-11-12T07:36:46.562Z,47.13
2017-11-12T07:37:46.609Z,46.84
2017-11-12T07:38:46.649Z,47.31
2017-11-12T07:39:46.690Z,47.03
2017-11-12T07:40:46.730Z,46.84
2017-11-12T07:41:46.775Z,46.93
2017-11-12T07:42:46.819Z,46.84
2017-11-12T07:43:46.858Z,47.13
2017-11-12T07:44:46.902Z,46.81
2017-11-12T07:45:46.944Z,46.93
2017-11-12T07:46:46.986Z,46.06
2017-11-12T07:47:47.031Z,46.16
2017-11-12T07:48:47.067Z,46.84
2017-11-12T07:49:47.114Z,47.10
2017-11-12T07:50:47.152Z,45.85
2017-11-12T07:51:47.194Z,46.72
2017-11-12T07:52:47.238Z,46.04
2017-11-12T07:53:47.278Z,46.23
2017-11-12T07:54:47.321Z,45.56
2017-11-12T07:55:47.363Z,45.95
2017-11-12T07:56:47.413Z,46.62
2017-11-12T07:57:47.446Z,46.33
2017-11-12T07:58:47.489Z,46.33
2017-11-12T07:59:47.531Z,46.62
2017-11-12T08:00:47.574Z,46.53
2017-11-12T08:01:47.616Z,46.62
2017-11-12T08:02:47.658Z,46.72
2017-11-12T08:03:47.701Z,46.62
2017-11-12T08:04:47.745Z,46.53
2017-11-12T08:05:47.788Z,46.43
2017-11-12T08:06:47.828Z,47.00
2017-11-12T08:07:47.871Z,46.91
2017-11-12T08:08:47.913Z,47.10
2017-11-12T08:09:47.955Z,46.62
2017-11-12T08:10:47.996Z,46.53
2017-11-12T08:11:48.041Z,46.04
2017-11-12T08:12:48.080Z,46.33
2017-11-12T08:13:48.126Z,46.91
2017-11-12T08:14:48.177Z,46.62
2017-11-12T08:15:48.208Z,46.98
2017-11-12T08:16:48.260Z,46.69
2017-11-12T08:17:48.291Z,46.98
2017-11-12T08:18:48.334Z,46.69
2017-11-12T08:19:48.381Z,47.08
2017-11-12T08:20:48.420Z,47.17
2017-11-12T08:21:48.459Z,47.36
2017-11-12T08:22:48.502Z,46.89
2017-11-12T08:23:48.544Z,46.98
2017-11-12T08:24:48.588Z,47.85
2017-11-12T08:25:48.635Z,47.36
2017-11-12T08:26:48.674Z,47.66
2017-11-12T08:27:48.715Z,47.36
2017-11-12T08:28:48.756Z,47.75
2017-11-12T08:29:48.801Z,47.46
2017-11-12T08:30:48.843Z,47.85
2017-11-12T08:31:48.881Z,48.13
2017-11-12T08:32:48.926Z,48.13
2017-11-12T08:33:48.967Z,48.33
2017-11-12T08:34:49.012Z,48.13
2017-11-12T08:35:49.054Z,48.81
2017-11-12T08:36:49.094Z,48.52
2017-11-12T08:37:49.136Z,48.71
2017-11-12T08:38:49.177Z,48.71
2017-11-12T08:39:49.224Z,48.04
2017-11-12T08:40:49.262Z,48.64
2017-11-12T08:41:49.303Z,48.45
2017-11-12T08:42:49.346Z,48.16
2017-11-12T08:43:49.393Z,48.25
2017-11-12T08:44:49.431Z,48.25
2017-11-12T08:45:49.474Z,47.97
2017-11-12T08:46:49.513Z,47.99
2017-11-12T08:47:49.560Z,47.61
2017-11-12T08:48:49.598Z,47.61
2017-11-12T08:49:49.644Z,47.70
2017-11-12T08:50:49.691Z,47.51
2017-11-12T08:51:49.726Z,47.31
2017-11-12T08:52:49.765Z,46.64
2017-11-12T08:53:49.807Z,46.93
2017-11-12T08:54:49.852Z,46.93
2017-11-12T08:55:49.897Z,46.74
2017-11-12T08:56:49.938Z,46.84
2017-11-12T08:57:49.978Z,47.03
2017-11-12T08:58:50.019Z,46.93
2017-11-12T08:59:50.062Z,47.13
2017-11-12T09:00:50.104Z,46.74
2017-11-12T09:01:50.148Z,46.45
2017-11-12T09:02:50.189Z,46.45
2017-11-12T09:03:50.269Z,46.45
2017-11-12T09:04:50.272Z,46.45
2017-11-12T09:05:50.315Z,46.64
2017-11-12T09:06:50.359Z,46.74
2017-11-12T09:07:50.400Z,45.68
2017-11-12T09:08:50.449Z,46.06
2017-11-12T09:09:50.484Z,45.68
2017-11-12T09:10:50.530Z,45.97
2017-11-12T09:11:50.569Z,46.36
2017-11-12T09:12:50.610Z,46.74
2017-11-12T09:13:50.653Z,46.45
2017-11-12T09:14:50.699Z,46.43
2017-11-12T09:15:50.738Z,46.14
2017-11-12T09:16:50.784Z,46.04
2017-11-12T09:17:50.822Z,46.81
2017-11-12T09:18:50.863Z,46.43
2017-11-12T09:19:50.909Z,46.23
2017-11-12T09:20:50.966Z,46.43
2017-11-12T09:21:50.993Z,46.04
2017-11-12T09:22:51.035Z,46.53
2017-11-12T09:23:51.078Z,46.91
2017-11-12T09:24:51.117Z,47.20
2017-11-12T09:25:51.160Z,46.91
2017-11-12T09:26:51.204Z,47.49
2017-11-12T09:27:51.249Z,47.68
2017-11-12T09:28:51.286Z,47.10
2017-11-12T09:29:51.329Z,47.77
2017-11-12T09:30:51.372Z,46.91
2017-11-12T09:31:51.418Z,46.62
2017-11-12T09:32:51.455Z,47.00
2017-11-12T09:33:51.497Z,47.10
2017-11-12T09:34:51.543Z,46.91
2017-11-12T09:35:51.582Z,47.68
2017-11-12T09:36:51.627Z,47.68
2017-11-12T09:37:51.668Z,47.49
2017-11-12T09:38:51.709Z,47.68
2017-11-12T09:39:51.752Z,47.00
2017-11-12T09:40:51.792Z,47.49
2017-11-12T09:41:51.835Z,47.66
2017-11-12T09:42:51.878Z,47.36
2017-11-12T09:43:51.921Z,47.36
2017-11-12T09:44:51.964Z,46.98
2017-11-12T09:45:52.007Z,47.46
2017-11-12T09:46:52.050Z,48.43
2017-11-12T09:47:52.089Z,48.43
2017-11-12T09:48:52.132Z,48.04
2017-11-12T09:49:52.173Z,48.52
2017-11-12T09:50:52.217Z,48.16
2017-11-12T09:51:52.257Z,48.54
2017-11-12T09:52:52.297Z,48.07
2017-11-12T09:53:52.343Z,48.16
2017-11-12T09:54:52.391Z,48.07
2017-11-12T09:55:52.426Z,48.35
2017-11-12T09:56:52.467Z,48.25
2017-11-12T09:57:52.509Z,47.77
2017-11-12T09:58:52.553Z,47.97
2017-11-12T09:59:52.604Z,47.20
2017-11-12T10:00:52.636Z,47.51
2017-11-12T10:01:52.680Z,47.70
2017-11-12T10:02:52.730Z,47.61
2017-11-12T10:03:52.763Z,47.13
2017-11-12T10:04:52.804Z,47.03
2017-11-12T10:05:52.848Z,47.03
2017-11-12T10:06:52.887Z,46.84
2017-11-12T10:07:52.932Z,47.03
2017-11-12T10:08:52.973Z,46.74
2017-11-12T10:09:53.015Z,46.55
2017-11-12T10:10:53.057Z,46.64
2017-11-12T10:11:53.100Z,46.45
2017-11-12T10:12:53.144Z,46.64
2017-11-12T10:13:53.191Z,46.36
2017-11-12T10:14:53.231Z,46.16
2017-11-12T10:15:53.268Z,46.06
2017-11-12T10:16:53.313Z,45.97
2017-11-12T10:17:53.357Z,45.87
2017-11-12T10:18:53.394Z,46.36
2017-11-12T10:19:53.436Z,45.97
2017-11-12T10:20:53.482Z,45.97
2017-11-12T10:21:53.518Z,45.87
2017-11-12T10:22:53.566Z,45.87
2017-11-12T10:23:53.607Z,46.26
2017-11-12T10:24:53.646Z,45.68
2017-11-12T10:25:53.690Z,45.20
2017-11-12T10:26:53.736Z,45.20
2017-11-12T10:27:53.779Z,45.49
2017-11-12T10:28:53.819Z,45.29
2017-11-12T10:29:53.861Z,45.78
2017-11-12T10:30:53.903Z,45.66
2017-11-12T10:31:53.943Z,46.04
2017-11-12T10:32:53.987Z,45.85
2017-11-12T10:33:54.029Z,46.23
2017-11-12T10:34:54.073Z,46.23
2017-11-12T10:35:54.114Z,46.72
2017-11-12T10:36:54.158Z,46.62
2017-11-12T10:37:54.200Z,46.23
2017-11-12T10:38:54.240Z,46.81
2017-11-12T10:39:54.287Z,47.10
2017-11-12T10:40:54.328Z,46.91
2017-11-12T10:41:54.369Z,46.91
2017-11-12T10:42:54.415Z,46.81
2017-11-12T10:43:54.452Z,46.91
2017-11-12T10:44:54.493Z,47.00
2017-11-12T10:45:54.547Z,47.10
2017-11-12T10:46:54.581Z,46.81
2017-11-12T10:47:54.624Z,46.62
2017-11-12T10:48:54.665Z,45.95
2017-11-12T10:49:54.704Z,46.62
2017-11-12T10:50:54.749Z,45.95
2017-11-12T10:51:54.795Z,45.85
2017-11-12T10:52:54.832Z,46.62
2017-11-12T10:53:54.874Z,47.00
2017-11-12T10:54:54.918Z,46.81
2017-11-12T10:55:54.960Z,46.81
2017-11-12T10:56:55.001Z,47.56
2017-11-12T10:57:55.049Z,47.68
2017-11-12T10:58:55.086Z,47.10
2017-11-12T10:59:55.128Z,46.89
2017-11-12T11:00:55.172Z,47.58
2017-11-12T11:01:55.213Z,47.97
2017-11-12T11:02:55.257Z,48.35
2017-11-12T11:03:55.299Z,48.16
2017-11-12T11:04:55.338Z,48.07
2017-11-12T11:05:55.389Z,48.35
2017-11-12T11:06:55.424Z,48.25
2017-11-12T11:07:55.471Z,48.35
2017-11-12T11:08:55.510Z,47.87
2017-11-12T11:09:55.551Z,47.58
2017-11-12T11:10:55.592Z,47.58
2017-11-12T11:11:55.632Z,47.51
2017-11-12T11:12:55.681Z,47.41
2017-11-12T11:13:55.720Z,47.61
2017-11-12T11:14:55.763Z,47.13
2017-11-12T11:15:55.804Z,47.22
2017-11-12T11:16:55.841Z,47.03
2017-11-12T11:17:55.887Z,47.03
2017-11-12T11:18:55.932Z,47.03
2017-11-12T11:19:55.970Z,46.55
2017-11-12T11:20:56.018Z,45.87
2017-11-12T11:21:56.056Z,46.45
2017-11-12T11:22:56.096Z,46.36
2017-11-12T11:23:56.140Z,46.36
2017-11-12T11:24:56.179Z,45.87
2017-11-12T11:25:56.226Z,46.26
2017-11-12T11:26:56.271Z,45.97
2017-11-12T11:27:56.316Z,46.26
2017-11-12T11:28:56.349Z,46.16
2017-11-12T11:29:56.394Z,45.97
2017-11-12T11:30:56.434Z,46.16
2017-11-12T11:31:56.481Z,45.78
2017-11-12T11:32:56.520Z,45.97
2017-11-12T11:33:56.564Z,45.97
2017-11-12T11:34:56.606Z,45.97
2017-11-12T11:35:56.648Z,45.78
2017-11-12T11:36:56.689Z,45.68
2017-11-12T11:37:56.730Z,45.87
2017-11-12T11:38:56.774Z,46.26
2017-11-12T11:39:56.825Z,45.87
2017-11-12T11:40:56.860Z,45.20
2017-11-12T11:41:56.908Z,45.20
2017-11-12T11:42:56.941Z,45.20
2017-11-12T11:43:56.984Z,45.29
2017-11-12T11:44:57.027Z,45.49
2017-11-12T11:45:57.069Z,45.95
2017-11-12T11:46:57.124Z,46.04
2017-11-12T11:47:57.154Z,45.59
2017-11-12T11:48:57.197Z,45.56
2017-11-12T11:49:57.243Z,46.14
2017-11-12T11:50:57.279Z,46.04
2017-11-12T11:51:57.326Z,46.23
2017-11-12T11:52:57.371Z,46.33
2017-11-12T11:53:57.408Z,45.95
2017-11-12T11:54:57.452Z,46.81
2017-11-12T11:55:57.492Z,46.62
2017-11-12T11:56:57.534Z,46.72
2017-11-12T11:57:57.575Z,46.62
2017-11-12T11:58:57.621Z,47.00
2017-11-12T11:59:57.662Z,46.33
2017-11-12T12:00:57.704Z,45.85
2017-11-12T12:01:57.746Z,45.95
2017-11-12T12:02:57.789Z,45.76
2017-11-12T12:03:57.831Z,46.33
2017-11-12T12:04:57.871Z,46.72
2017-11-12T12:05:57.916Z,47.00
2017-11-12T12:06:57.959Z,46.43
2017-11-12T12:07:58.002Z,46.23
2017-11-12T12:08:58.043Z,46.14
2017-11-12T12:09:58.083Z,46.72
2017-11-12T12:10:58.127Z,47.00
2017-11-12T12:11:58.168Z,47.87
2017-11-12T12:12:58.211Z,47.87
2017-11-12T12:13:58.253Z,47.87
2017-11-12T12:14:58.296Z,47.87
2017-11-12T12:15:58.336Z,47.97
2017-11-12T12:16:58.378Z,47.87
2017-11-12T12:17:58.420Z,47.68
2017-11-12T12:18:58.462Z,47.20
2017-11-12T12:19:58.512Z,47.49
2017-11-12T12:20:58.547Z,47.58
2017-11-12T12:21:58.588Z,47.51
2017-11-12T12:22:58.635Z,47.13
2017-11-12T12:23:58.677Z,46.81
2017-11-12T12:24:58.714Z,46.84
2017-11-12T12:25:58.756Z,46.64
2017-11-12T12:26:58.802Z,46.74
2017-11-12T12:27:58.842Z,46.45
2017-11-12T12:28:58.882Z,46.16
2017-11-12T12:29:58.924Z,45.97
2017-11-12T12:30:58.968Z,46.26
2017-11-12T12:31:59.015Z,45.78
2017-11-12T12:32:59.052Z,45.97
2017-11-12T12:33:59.092Z,45.68
2017-11-12T12:34:59.133Z,45.59
2017-11-12T12:35:59.193Z,45.70
2017-11-12T12:36:59.223Z,45.80
2017-11-12T12:37:59.264Z,45.70
2017-11-12T12:38:59.309Z,45.80
2017-11-12T12:39:59.347Z,45.68
2017-11-12T12:40:59.388Z,45.49
2017-11-12T12:41:59.430Z,45.68
2017-11-12T12:42:59.475Z,45.68
2017-11-12T12:43:59.515Z,45.68
2017-11-12T12:44:59.560Z,45.78
2017-11-12T12:45:59.599Z,46.06
2017-11-12T12:46:59.645Z,45.87
2017-11-12T12:47:59.687Z,45.68
2017-11-12T12:48:59.728Z,46.06
2017-11-12T12:49:59.769Z,46.06
2017-11-12T12:50:59.810Z,45.87
2017-11-12T12:51:59.856Z,45.68
2017-11-12T12:52:59.897Z,45.10